sensor_id;sensor_type;location;lat;lon;timestamp;pressure;altitude;pressure_sealevel;temperature;humidity
33280;BME280;20403;43.114;12.434;2023-04-25T00:01:29;98575.94;;;10.42;100.00
33280;BME280;20403;43.114;12.434;2023-04-25T00:03:54;98582.69;;;10.55;100.00
33280;BME280;20403;43.114;12.434;2023-04-25T00:06:19;98569.69;;;10.43;100.00
33280;BME280;20403;43.114;12.434;2023-04-25T00:08:45;98568.03;;;10.37;100.00
33280;BME280;20403;43.114;12.434;2023-04-25T00:11:10;98565.56;;;10.30;100.00
33280;BME280;20403;43.114;12.434;2023-04-25T00:13:36;98558.34;;;10.09;100.00
33280;BME280;20403;43.114;12.434;2023-04-25T00:16:01;98548.00;;;9.85;100.00
33280;BME280;20403;43.114;12.434;2023-04-25T00:18:27;98546.53;;;9.89;100.00
33280;BME280;20403;43.114;12.434;2023-04-25T00:20:58;98550.56;;;9.97;100.00
33280;BME280;20403;43.114;12.434;2023-04-25T00:23:23;98550.31;;;10.10;100.00
33280;BME280;20403;43.114;12.434;2023-04-25T00:25:49;98546.38;;;10.08;100.00
33280;BME280;20403;43.114;12.434;2023-04-25T00:28:15;98547.00;;;10.15;100.00
33280;BME280;20403;43.114;12.434;2023-04-25T00:30:42;98548.28;;;10.13;100.00
33280;BME280;20403;43.114;12.434;2023-04-25T00:33:08;98545.31;;;10.09;100.00
33280;BME280;20403;43.114;12.434;2023-04-25T00:35:34;98544.63;;;10.14;100.00
33280;BME280;20403;43.114;12.434;2023-04-25T00:37:59;98532.44;;;10.02;100.00
33280;BME280;20403;43.114;12.434;2023-04-25T00:40:25;98536.19;;;9.95;100.00
33280;BME280;20403;43.114;12.434;2023-04-25T00:42:54;98528.69;;;9.70;100.00
33280;BME280;20403;43.114;12.434;2023-04-25T00:45:20;98526.53;;;9.66;100.00
33280;BME280;20403;43.114;12.434;2023-04-25T00:47:45;98516.94;;;9.55;100.00
33280;BME280;20403;43.114;12.434;2023-04-25T00:50:12;98523.41;;;9.53;100.00
33280;BME280;20403;43.114;12.434;2023-04-25T00:52:43;98523.72;;;9.56;100.00
33280;BME280;20403;43.114;12.434;2023-04-25T00:55:10;98524.69;;;9.79;100.00
33280;BME280;20403;43.114;12.434;2023-04-25T00:57:37;98524.78;;;9.84;100.00
33280;BME280;20403;43.114;12.434;2023-04-25T01:00:04;98540.63;;;9.94;100.00
33280;BME280;20403;43.114;12.434;2023-04-25T01:02:32;98539.06;;;9.81;100.00
33280;BME280;20403;43.114;12.434;2023-04-25T01:04:57;98539.38;;;9.97;100.00
33280;BME280;20403;43.114;12.434;2023-04-25T01:07:23;98544.16;;;9.88;100.00
33280;BME280;20403;43.114;12.434;2023-04-25T01:09:48;98540.09;;;9.80;100.00
33280;BME280;20403;43.114;12.434;2023-04-25T01:12:16;98539.28;;;9.92;100.00
33280;BME280;20403;43.114;12.434;2023-04-25T01:14:41;98534.31;;;9.78;100.00
33280;BME280;20403;43.114;12.434;2023-04-25T01:17:08;98529.69;;;9.80;100.00
33280;BME280;20403;43.114;12.434;2023-04-25T01:19:34;98528.00;;;9.62;100.00
33280;BME280;20403;43.114;12.434;2023-04-25T01:21:59;98531.78;;;9.55;100.00
33280;BME280;20403;43.114;12.434;2023-04-25T01:24:25;98532.91;;;9.35;100.00
33280;BME280;20403;43.114;12.434;2023-04-25T01:26:51;98529.31;;;9.24;100.00
33280;BME280;20403;43.114;12.434;2023-04-25T01:29:18;98519.31;;;9.45;100.00
33280;BME280;20403;43.114;12.434;2023-04-25T01:31:44;98519.75;;;9.54;100.00
33280;BME280;20403;43.114;12.434;2023-04-25T01:34:10;98516.47;;;9.58;100.00
33280;BME280;20403;43.114;12.434;2023-04-25T01:36:35;98513.19;;;9.63;100.00
33280;BME280;20403;43.114;12.434;2023-04-25T01:39:01;98514.97;;;9.74;100.00
33280;BME280;20403;43.114;12.434;2023-04-25T01:41:27;98509.44;;;9.71;100.00
33280;BME280;20403;43.114;12.434;2023-04-25T01:43:53;98508.75;;;9.63;100.00
33280;BME280;20403;43.114;12.434;2023-04-25T01:46:18;98511.94;;;9.65;100.00
33280;BME280;20403;43.114;12.434;2023-04-25T01:48:44;98515.13;;;9.56;100.00
33280;BME280;20403;43.114;12.434;2023-04-25T01:51:09;98518.19;;;9.53;100.00
33280;BME280;20403;43.114;12.434;2023-04-25T01:53:37;98512.63;;;9.49;100.00
33280;BME280;20403;43.114;12.434;2023-04-25T01:56:02;98522.13;;;9.67;100.00
33280;BME280;20403;43.114;12.434;2023-04-25T01:58:28;98524.69;;;9.79;100.00
33280;BME280;20403;43.114;12.434;2023-04-25T02:00:53;98512.34;;;9.86;100.00
33280;BME280;20403;43.114;12.434;2023-04-25T02:03:19;98509.69;;;9.98;100.00
33280;BME280;20403;43.114;12.434;2023-04-25T02:05:45;98518.06;;;10.00;100.00
33280;BME280;20403;43.114;12.434;2023-04-25T02:08:10;98501.78;;;9.93;100.00
33280;BME280;20403;43.114;12.434;2023-04-25T02:10:36;98503.25;;;9.88;100.00
33280;BME280;20403;43.114;12.434;2023-04-25T02:13:01;98502.16;;;9.84;100.00
33280;BME280;20403;43.114;12.434;2023-04-25T02:15:27;98509.66;;;9.69;100.00
33280;BME280;20403;43.114;12.434;2023-04-25T02:17:53;98500.84;;;9.58;100.00
33280;BME280;20403;43.114;12.434;2023-04-25T02:20:20;98498.34;;;9.75;100.00
33280;BME280;20403;43.114;12.434;2023-04-25T02:22:46;98492.88;;;9.77;100.00
33280;BME280;20403;43.114;12.434;2023-04-25T02:25:12;98496.66;;;9.69;100.00
33280;BME280;20403;43.114;12.434;2023-04-25T02:27:38;98485.06;;;9.77;100.00
33280;BME280;20403;43.114;12.434;2023-04-25T02:30:04;98486.16;;;9.93;100.00
33280;BME280;20403;43.114;12.434;2023-04-25T02:32:30;98483.94;;;9.84;100.00
33280;BME280;20403;43.114;12.434;2023-04-25T02:34:55;98486.69;;;9.78;100.00
33280;BME280;20403;43.114;12.434;2023-04-25T02:37:23;98490.41;;;9.70;100.00
33280;BME280;20403;43.114;12.434;2023-04-25T02:39:49;98493.97;;;9.64;100.00
33280;BME280;20403;43.114;12.434;2023-04-25T02:42:15;98481.50;;;9.66;100.00
33280;BME280;20403;43.114;12.434;2023-04-25T02:44:40;98477.88;;;9.67;100.00
33280;BME280;20403;43.114;12.434;2023-04-25T02:47:05;98479.00;;;9.71;100.00
33280;BME280;20403;43.114;12.434;2023-04-25T02:49:31;98491.91;;;9.66;100.00
33280;BME280;20403;43.114;12.434;2023-04-25T02:51:56;98496.44;;;9.59;100.00
33280;BME280;20403;43.114;12.434;2023-04-25T02:54:21;98486.63;;;9.49;100.00
33280;BME280;20403;43.114;12.434;2023-04-25T02:56:47;98490.59;;;9.40;100.00
33280;BME280;20403;43.114;12.434;2023-04-25T02:59:12;98478.84;;;9.14;100.00
33280;BME280;20403;43.114;12.434;2023-04-25T03:01:38;98476.59;;;9.17;100.00
33280;BME280;20403;43.114;12.434;2023-04-25T03:04:03;98483.47;;;9.35;100.00
33280;BME280;20403;43.114;12.434;2023-04-25T03:06:29;98486.50;;;9.44;100.00
33280;BME280;20403;43.114;12.434;2023-04-25T03:08:54;98491.59;;;9.51;100.00
33280;BME280;20403;43.114;12.434;2023-04-25T03:11:19;98487.41;;;9.50;100.00
33280;BME280;20403;43.114;12.434;2023-04-25T03:13:45;98493.63;;;9.49;100.00
33280;BME280;20403;43.114;12.434;2023-04-25T03:16:11;98490.03;;;9.38;100.00
33280;BME280;20403;43.114;12.434;2023-04-25T03:18:36;98489.13;;;9.32;100.00
33280;BME280;20403;43.114;12.434;2023-04-25T03:21:02;98488.56;;;9.30;100.00
33280;BME280;20403;43.114;12.434;2023-04-25T03:23:27;98487.88;;;9.35;100.00
33280;BME280;20403;43.114;12.434;2023-04-25T03:25:52;98489.69;;;9.34;100.00
33280;BME280;20403;43.114;12.434;2023-04-25T03:28:18;98480.97;;;9.29;100.00
33280;BME280;20403;43.114;12.434;2023-04-25T03:30:43;98484.50;;;9.22;100.00
33280;BME280;20403;43.114;12.434;2023-04-25T03:33:09;98481.94;;;9.11;100.00
33280;BME280;20403;43.114;12.434;2023-04-25T03:35:34;98480.13;;;8.99;100.00
33280;BME280;20403;43.114;12.434;2023-04-25T03:37:59;98482.25;;;8.91;100.00
33280;BME280;20403;43.114;12.434;2023-04-25T03:40:25;98478.97;;;8.72;100.00
33280;BME280;20403;43.114;12.434;2023-04-25T03:42:50;98481.00;;;8.70;100.00
33280;BME280;20403;43.114;12.434;2023-04-25T03:45:16;98484.59;;;8.69;100.00
33280;BME280;20403;43.114;12.434;2023-04-25T03:47:41;98486.66;;;8.67;100.00
33280;BME280;20403;43.114;12.434;2023-04-25T03:50:07;98487.84;;;8.52;100.00
33280;BME280;20403;43.114;12.434;2023-04-25T03:52:32;98479.81;;;8.42;100.00
33280;BME280;20403;43.114;12.434;2023-04-25T03:54:57;98474.47;;;8.37;100.00
33280;BME280;20403;43.114;12.434;2023-04-25T03:57:23;98476.38;;;8.30;100.00
33280;BME280;20403;43.114;12.434;2023-04-25T03:59:48;98480.41;;;8.26;100.00
33280;BME280;20403;43.114;12.434;2023-04-25T04:02:13;98478.41;;;8.28;100.00
33280;BME280;20403;43.114;12.434;2023-04-25T04:04:39;98476.69;;;8.21;100.00
33280;BME280;20403;43.114;12.434;2023-04-25T04:07:04;98469.53;;;8.17;100.00
33280;BME280;20403;43.114;12.434;2023-04-25T04:09:30;98469.59;;;8.29;100.00
33280;BME280;20403;43.114;12.434;2023-04-25T04:11:55;98468.56;;;8.18;100.00
33280;BME280;20403;43.114;12.434;2023-04-25T04:14:21;98467.16;;;8.46;100.00
33280;BME280;20403;43.114;12.434;2023-04-25T04:16:46;98475.44;;;8.54;100.00
33280;BME280;20403;43.114;12.434;2023-04-25T04:19:11;98472.25;;;8.52;100.00
33280;BME280;20403;43.114;12.434;2023-04-25T04:21:37;98479.16;;;8.58;100.00
33280;BME280;20403;43.114;12.434;2023-04-25T04:24:02;98478.03;;;8.66;100.00
33280;BME280;20403;43.114;12.434;2023-04-25T04:26:28;98484.59;;;8.69;100.00
33280;BME280;20403;43.114;12.434;2023-04-25T04:28:54;98475.91;;;8.75;100.00
33280;BME280;20403;43.114;12.434;2023-04-25T04:31:22;98480.22;;;8.69;100.00
33280;BME280;20403;43.114;12.434;2023-04-25T04:33:49;98479.28;;;8.63;100.00
33280;BME280;20403;43.114;12.434;2023-04-25T04:36:14;98483.69;;;8.63;100.00
33280;BME280;20403;43.114;12.434;2023-04-25T04:38:40;98478.19;;;8.71;100.00
33280;BME280;20403;43.114;12.434;2023-04-25T04:41:07;98475.13;;;8.62;100.00
33280;BME280;20403;43.114;12.434;2023-04-25T04:43:33;98467.91;;;8.76;100.00
33280;BME280;20403;43.114;12.434;2023-04-25T04:46:00;98469.03;;;8.80;100.00
33280;BME280;20403;43.114;12.434;2023-04-25T04:48:26;98464.06;;;8.79;100.00
33280;BME280;20403;43.114;12.434;2023-04-25T04:50:51;98468.28;;;8.50;100.00
33280;BME280;20403;43.114;12.434;2023-04-25T04:53:17;98459.72;;;8.61;100.00
33280;BME280;20403;43.114;12.434;2023-04-25T04:55:42;98459.41;;;8.69;100.00
33280;BME280;20403;43.114;12.434;2023-04-25T04:58:08;98462.44;;;8.78;100.00
33280;BME280;20403;43.114;12.434;2023-04-25T05:00:33;98464.16;;;8.84;100.00
33280;BME280;20403;43.114;12.434;2023-04-25T05:02:59;98472.41;;;9.04;100.00
33280;BME280;20403;43.114;12.434;2023-04-25T05:05:24;98472.09;;;9.13;100.00
33280;BME280;20403;43.114;12.434;2023-04-25T05:07:50;98473.19;;;9.29;100.00
33280;BME280;20403;43.114;12.434;2023-04-25T05:10:16;98485.81;;;9.49;100.00
33280;BME280;20403;43.114;12.434;2023-04-25T05:12:42;98477.81;;;9.79;100.00
33280;BME280;20403;43.114;12.434;2023-04-25T05:15:07;98480.59;;;10.01;100.00
33280;BME280;20403;43.114;12.434;2023-04-25T05:17:33;98479.41;;;10.08;100.00
33280;BME280;20403;43.114;12.434;2023-04-25T05:19:58;98470.44;;;10.16;100.00
33280;BME280;20403;43.114;12.434;2023-04-25T05:22:24;98475.56;;;10.40;100.00
33280;BME280;20403;43.114;12.434;2023-04-25T05:24:49;98476.50;;;10.67;100.00
33280;BME280;20403;43.114;12.434;2023-04-25T05:27:17;98464.91;;;10.75;100.00
33280;BME280;20403;43.114;12.434;2023-04-25T05:29:42;98460.69;;;10.74;100.00
33280;BME280;20403;43.114;12.434;2023-04-25T05:32:07;98465.91;;;10.74;100.00
33280;BME280;20403;43.114;12.434;2023-04-25T05:34:34;98460.69;;;10.74;100.00
33280;BME280;20403;43.114;12.434;2023-04-25T05:37:00;98458.31;;;10.89;100.00
33280;BME280;20403;43.114;12.434;2023-04-25T05:39:26;98461.16;;;11.05;100.00
33280;BME280;20403;43.114;12.434;2023-04-25T05:41:52;98456.56;;;11.12;100.00
33280;BME280;20403;43.114;12.434;2023-04-25T05:44:17;98460.88;;;11.23;100.00
33280;BME280;20403;43.114;12.434;2023-04-25T05:46:43;98468.06;;;11.33;100.00
33280;BME280;20403;43.114;12.434;2023-04-25T05:49:08;98466.09;;;11.45;100.00
33280;BME280;20403;43.114;12.434;2023-04-25T05:51:33;98448.44;;;11.74;100.00
33280;BME280;20403;43.114;12.434;2023-04-25T05:53:59;98455.34;;;11.86;100.00
33280;BME280;20403;43.114;12.434;2023-04-25T05:56:24;98450.19;;;11.91;100.00
33280;BME280;20403;43.114;12.434;2023-04-25T05:58:50;98453.72;;;12.02;100.00
33280;BME280;20403;43.114;12.434;2023-04-25T06:01:15;98446.94;;;12.06;100.00
33280;BME280;20403;43.114;12.434;2023-04-25T06:03:41;98446.34;;;12.26;100.00
33280;BME280;20403;43.114;12.434;2023-04-25T06:06:08;98432.09;;;12.38;100.00
33280;BME280;20403;43.114;12.434;2023-04-25T06:08:34;98438.94;;;12.50;100.00
33280;BME280;20403;43.114;12.434;2023-04-25T06:11:00;98441.09;;;12.58;100.00
33280;BME280;20403;43.114;12.434;2023-04-25T06:13:25;98443.31;;;12.71;100.00
33280;BME280;20403;43.114;12.434;2023-04-25T06:15:50;98441.53;;;12.82;100.00
33280;BME280;20403;43.114;12.434;2023-04-25T06:18:16;98454.16;;;12.90;100.00
33280;BME280;20403;43.114;12.434;2023-04-25T06:20:41;98456.06;;;13.05;100.00
33280;BME280;20403;43.114;12.434;2023-04-25T06:23:07;98460.16;;;12.91;100.00
33280;BME280;20403;43.114;12.434;2023-04-25T06:25:32;98452.72;;;12.72;100.00
33280;BME280;20403;43.114;12.434;2023-04-25T06:27:58;98451.69;;;12.73;100.00
33280;BME280;20403;43.114;12.434;2023-04-25T06:30:23;98463.66;;;12.64;100.00
33280;BME280;20403;43.114;12.434;2023-04-25T06:32:51;98465.81;;;12.77;100.00
33280;BME280;20403;43.114;12.434;2023-04-25T06:35:16;98461.50;;;12.98;100.00
33280;BME280;20403;43.114;12.434;2023-04-25T06:37:42;98461.13;;;13.22;100.00
33280;BME280;20403;43.114;12.434;2023-04-25T06:40:08;98461.97;;;13.33;100.00
33280;BME280;20403;43.114;12.434;2023-04-25T06:42:33;98466.22;;;13.39;100.00
33280;BME280;20403;43.114;12.434;2023-04-25T06:44:59;98470.47;;;13.55;100.00
33280;BME280;20403;43.114;12.434;2023-04-25T06:47:24;98468.91;;;13.54;100.00
33280;BME280;20403;43.114;12.434;2023-04-25T06:49:50;98470.25;;;13.67;100.00
33280;BME280;20403;43.114;12.434;2023-04-25T06:52:16;98460.31;;;13.74;100.00
33280;BME280;20403;43.114;12.434;2023-04-25T06:54:43;98454.63;;;14.03;100.00
33280;BME280;20403;43.114;12.434;2023-04-25T06:57:08;98446.25;;;14.21;100.00
33280;BME280;20403;43.114;12.434;2023-04-25T06:59:34;98450.19;;;14.29;100.00
33280;BME280;20403;43.114;12.434;2023-04-25T07:01:59;98449.13;;;14.30;100.00
33280;BME280;20403;43.114;12.434;2023-04-25T07:04:25;98447.34;;;14.61;100.00
33280;BME280;20403;43.114;12.434;2023-04-25T07:06:50;98444.19;;;14.59;100.00
33280;BME280;20403;43.114;12.434;2023-04-25T07:09:16;98446.56;;;14.61;100.00
33280;BME280;20403;43.114;12.434;2023-04-25T07:11:41;98446.00;;;14.84;100.00
33280;BME280;20403;43.114;12.434;2023-04-25T07:14:07;98442.81;;;14.98;100.00
33280;BME280;20403;43.114;12.434;2023-04-25T07:16:32;98437.56;;;14.92;100.00
33280;BME280;20403;43.114;12.434;2023-04-25T07:18:58;98443.94;;;14.61;100.00
33280;BME280;20403;43.114;12.434;2023-04-25T07:21:24;98438.41;;;14.62;100.00
33280;BME280;20403;43.114;12.434;2023-04-25T07:23:50;98432.09;;;14.74;100.00
33280;BME280;20403;43.114;12.434;2023-04-25T07:26:16;98421.81;;;14.92;100.00
33280;BME280;20403;43.114;12.434;2023-04-25T07:28:41;98422.66;;;15.48;100.00
33280;BME280;20403;43.114;12.434;2023-04-25T07:31:07;98414.88;;;15.32;100.00
33280;BME280;20403;43.114;12.434;2023-04-25T07:33:33;98410.81;;;15.55;100.00
33280;BME280;20403;43.114;12.434;2023-04-25T07:35:58;98412.34;;;15.67;100.00
33280;BME280;20403;43.114;12.434;2023-04-25T07:38:24;98413.50;;;15.45;100.00
33280;BME280;20403;43.114;12.434;2023-04-25T07:40:49;98408.69;;;15.63;100.00
33280;BME280;20403;43.114;12.434;2023-04-25T07:43:15;98405.25;;;15.67;100.00
33280;BME280;20403;43.114;12.434;2023-04-25T07:45:45;98393.06;;;16.21;100.00
33280;BME280;20403;43.114;12.434;2023-04-25T07:48:11;98399.41;;;16.20;100.00
33280;BME280;20403;43.114;12.434;2023-04-25T07:50:36;98403.84;;;16.20;100.00
33280;BME280;20403;43.114;12.434;2023-04-25T07:53:02;98402.22;;;15.94;100.00
33280;BME280;20403;43.114;12.434;2023-04-25T07:55:27;98408.59;;;15.78;100.00
33280;BME280;20403;43.114;12.434;2023-04-25T07:57:53;98401.72;;;15.87;100.00
33280;BME280;20403;43.114;12.434;2023-04-25T08:00:18;98406.50;;;15.85;100.00
33280;BME280;20403;43.114;12.434;2023-04-25T08:02:44;98416.78;;;15.66;100.00
33280;BME280;20403;43.114;12.434;2023-04-25T08:05:10;98411.56;;;15.71;100.00
33280;BME280;20403;43.114;12.434;2023-04-25T08:07:39;98402.38;;;15.64;100.00
33280;BME280;20403;43.114;12.434;2023-04-25T08:10:06;98397.59;;;15.76;100.00
33280;BME280;20403;43.114;12.434;2023-04-25T08:12:32;98398.91;;;15.68;100.00
33280;BME280;20403;43.114;12.434;2023-04-25T08:14:57;98405.59;;;15.45;100.00
33280;BME280;20403;43.114;12.434;2023-04-25T08:17:23;98417.44;;;15.43;100.00
33280;BME280;20403;43.114;12.434;2023-04-25T08:19:48;98425.41;;;15.27;100.00
33280;BME280;20403;43.114;12.434;2023-04-25T08:22:14;98423.03;;;15.26;100.00
33280;BME280;20403;43.114;12.434;2023-04-25T08:24:40;98424.09;;;15.20;100.00
33280;BME280;20403;43.114;12.434;2023-04-25T08:27:05;98420.88;;;15.38;100.00
33280;BME280;20403;43.114;12.434;2023-04-25T08:29:32;98415.56;;;15.53;100.00
33280;BME280;20403;43.114;12.434;2023-04-25T08:31:58;98410.53;;;15.62;100.00
33280;BME280;20403;43.114;12.434;2023-04-25T08:34:23;98417.66;;;15.57;100.00
33280;BME280;20403;43.114;12.434;2023-04-25T08:36:48;98418.41;;;15.57;100.00
33280;BME280;20403;43.114;12.434;2023-04-25T08:39:14;98418.94;;;15.64;100.00
33280;BME280;20403;43.114;12.434;2023-04-25T08:41:40;98416.78;;;15.66;100.00
33280;BME280;20403;43.114;12.434;2023-04-25T08:44:10;98409.59;;;15.92;100.00
33280;BME280;20403;43.114;12.434;2023-04-25T08:46:38;98413.88;;;16.17;100.00
33280;BME280;20403;43.114;12.434;2023-04-25T08:49:04;98407.88;;;16.70;100.00
33280;BME280;20403;43.114;12.434;2023-04-25T08:51:32;98415.84;;;16.65;100.00
33280;BME280;20403;43.114;12.434;2023-04-25T08:54:08;98402.00;;;16.84;100.00
33280;BME280;20403;43.114;12.434;2023-04-25T08:56:35;98408.69;;;16.71;100.00
33280;BME280;20403;43.114;12.434;2023-04-25T08:59:01;98404.66;;;16.49;100.00
33280;BME280;20403;43.114;12.434;2023-04-25T09:01:27;98415.34;;;16.29;100.00
33280;BME280;20403;43.114;12.434;2023-04-25T09:03:53;98412.50;;;16.25;100.00
33280;BME280;20403;43.114;12.434;2023-04-25T09:06:19;98415.19;;;16.15;100.00
33280;BME280;20403;43.114;12.434;2023-04-25T09:08:45;98424.56;;;15.92;100.00
33280;BME280;20403;43.114;12.434;2023-04-25T09:11:12;98419.94;;;15.79;100.00
33280;BME280;20403;43.114;12.434;2023-04-25T09:13:38;98413.91;;;15.68;100.00
33280;BME280;20403;43.114;12.434;2023-04-25T09:16:04;98414.69;;;15.79;100.00
33280;BME280;20403;43.114;12.434;2023-04-25T09:18:34;98416.97;;;15.90;100.00
33280;BME280;20403;43.114;12.434;2023-04-25T09:21:07;98414.63;;;15.84;100.00
33280;BME280;20403;43.114;12.434;2023-04-25T09:23:40;98415.63;;;15.93;100.00
33280;BME280;20403;43.114;12.434;2023-04-25T09:26:07;98415.72;;;15.78;100.00
33280;BME280;20403;43.114;12.434;2023-04-25T09:28:33;98416.44;;;15.88;100.00
33280;BME280;20403;43.114;12.434;2023-04-25T09:31:00;98410.69;;;15.86;100.00
33280;BME280;20403;43.114;12.434;2023-04-25T09:33:30;98403.53;;;15.92;100.00
33280;BME280;20403;43.114;12.434;2023-04-25T09:36:04;98400.28;;;16.05;100.00
33280;BME280;20403;43.114;12.434;2023-04-25T09:38:46;98407.03;;;16.16;100.00
33280;BME280;20403;43.114;12.434;2023-04-25T09:41:12;98405.41;;;16.26;100.00
33280;BME280;20403;43.114;12.434;2023-04-25T09:43:39;98404.25;;;16.37;100.00
33280;BME280;20403;43.114;12.434;2023-04-25T09:46:09;98396.63;;;16.65;100.00
33280;BME280;20403;43.114;12.434;2023-04-25T09:48:34;98395.88;;;16.88;100.00
33280;BME280;20403;43.114;12.434;2023-04-25T09:51:13;98404.56;;;17.13;100.00
33280;BME280;20403;43.114;12.434;2023-04-25T09:53:44;98397.63;;;17.22;100.00
33280;BME280;20403;43.114;12.434;2023-04-25T09:56:11;98398.03;;;17.72;100.00
33280;BME280;20403;43.114;12.434;2023-04-25T09:58:39;98385.59;;;18.11;100.00
33280;BME280;20403;43.114;12.434;2023-04-25T10:01:10;98392.38;;;18.17;100.00
33280;BME280;20403;43.114;12.434;2023-04-25T10:03:39;98389.00;;;18.11;100.00
33280;BME280;20403;43.114;12.434;2023-04-25T10:06:12;98382.91;;;18.30;100.00
33280;BME280;20403;43.114;12.434;2023-04-25T10:08:38;98378.25;;;18.40;100.00
33280;BME280;20403;43.114;12.434;2023-04-25T10:11:07;98379.31;;;18.25;100.00
33280;BME280;20403;43.114;12.434;2023-04-25T10:13:34;98376.47;;;18.36;100.00
33280;BME280;20403;43.114;12.434;2023-04-25T10:16:02;98371.94;;;17.90;100.00
33280;BME280;20403;43.114;12.434;2023-04-25T10:18:29;98372.78;;;17.47;100.00
33280;BME280;20403;43.114;12.434;2023-04-25T10:20:55;98379.63;;;17.05;100.00
33280;BME280;20403;43.114;12.434;2023-04-25T10:23:21;98371.44;;;17.07;100.00
33280;BME280;20403;43.114;12.434;2023-04-25T10:25:47;98367.09;;;16.97;100.00
33280;BME280;20403;43.114;12.434;2023-04-25T10:28:13;98361.81;;;17.59;100.00
33280;BME280;20403;43.114;12.434;2023-04-25T10:30:57;98366.16;;;18.20;100.00
33280;BME280;20403;43.114;12.434;2023-04-25T10:33:32;98373.03;;;18.21;100.00
33280;BME280;20403;43.114;12.434;2023-04-25T10:35:58;98364.16;;;18.31;100.00
33280;BME280;20403;43.114;12.434;2023-04-25T10:38:23;98358.78;;;18.36;100.00
33280;BME280;20403;43.114;12.434;2023-04-25T10:41:08;98362.53;;;18.02;100.00
33280;BME280;20403;43.114;12.434;2023-04-25T10:43:39;98348.31;;;18.31;100.00
33280;BME280;20403;43.114;12.434;2023-04-25T10:46:26;98347.81;;;18.29;100.00
33280;BME280;20403;43.114;12.434;2023-04-25T10:48:54;98349.38;;;18.16;100.00
33280;BME280;20403;43.114;12.434;2023-04-25T10:51:34;98354.06;;;17.87;100.00
33280;BME280;20403;43.114;12.434;2023-04-25T10:54:07;98355.81;;;17.53;100.00
33280;BME280;20403;43.114;12.434;2023-04-25T10:56:36;98345.03;;;17.12;100.00
33280;BME280;20403;43.114;12.434;2023-04-25T10:59:14;98346.81;;;17.16;100.00
33280;BME280;20403;43.114;12.434;2023-04-25T11:09:27;98344.91;;;17.03;100.00
33280;BME280;20403;43.114;12.434;2023-04-25T11:11:54;98347.00;;;16.77;100.00
33280;BME280;20403;43.114;12.434;2023-04-25T11:14:20;98339.81;;;16.34;100.00
33280;BME280;20403;43.114;12.434;2023-04-25T11:16:47;98335.88;;;16.03;100.00
33280;BME280;20403;43.114;12.434;2023-04-25T11:19:12;98324.31;;;16.04;100.00
33280;BME280;20403;43.114;12.434;2023-04-25T11:21:37;98324.09;;;16.29;100.00
33280;BME280;20403;43.114;12.434;2023-04-25T11:24:03;98314.00;;;16.60;100.00
33280;BME280;20403;43.114;12.434;2023-04-25T11:26:30;98314.25;;;16.88;100.00
33280;BME280;20403;43.114;12.434;2023-04-25T11:28:58;98307.97;;;17.79;100.00
33280;BME280;20403;43.114;12.434;2023-04-25T11:31:25;98294.00;;;18.58;100.00
33280;BME280;20403;43.114;12.434;2023-04-25T11:33:53;98286.16;;;18.94;100.00
33280;BME280;20403;43.114;12.434;2023-04-25T11:36:20;98275.50;;;19.22;100.00
33280;BME280;20403;43.114;12.434;2023-04-25T11:38:45;98281.53;;;19.14;100.00
33280;BME280;20403;43.114;12.434;2023-04-25T11:41:11;98276.44;;;19.03;100.00
33280;BME280;20403;43.114;12.434;2023-04-25T11:43:37;98269.50;;;19.07;100.00
33280;BME280;20403;43.114;12.434;2023-04-25T11:46:06;98269.75;;;19.20;100.00
33280;BME280;20403;43.114;12.434;2023-04-25T11:48:39;98266.84;;;19.07;100.00
33280;BME280;20403;43.114;12.434;2023-04-25T11:51:05;98264.47;;;19.42;100.00
33280;BME280;20403;43.114;12.434;2023-04-25T11:53:31;98260.31;;;19.95;100.00
33280;BME280;20403;43.114;12.434;2023-04-25T11:55:56;98268.56;;;20.25;100.00
33280;BME280;20403;43.114;12.434;2023-04-25T11:58:22;98261.34;;;20.17;100.00
33280;BME280;20403;43.114;12.434;2023-04-25T12:00:48;98254.28;;;20.92;100.00
33280;BME280;20403;43.114;12.434;2023-04-25T12:03:13;98253.19;;;21.02;100.00
33280;BME280;20403;43.114;12.434;2023-04-25T12:05:38;98263.91;;;20.30;100.00
33280;BME280;20403;43.114;12.434;2023-04-25T12:08:12;98264.22;;;19.98;100.00
33280;BME280;20403;43.114;12.434;2023-04-25T12:10:39;98254.09;;;20.31;100.00
33280;BME280;20403;43.114;12.434;2023-04-25T12:13:20;98260.06;;;20.05;100.00
33280;BME280;20403;43.114;12.434;2023-04-25T12:15:45;98251.56;;;20.26;100.00
33280;BME280;20403;43.114;12.434;2023-04-25T12:18:11;98261.31;;;20.08;100.00
33280;BME280;20403;43.114;12.434;2023-04-25T12:20:36;98258.56;;;20.13;100.00
33280;BME280;20403;43.114;12.434;2023-04-25T12:23:05;98248.69;;;20.45;100.00
33280;BME280;20403;43.114;12.434;2023-04-25T12:25:43;98254.19;;;19.63;100.00
33280;BME280;20403;43.114;12.434;2023-04-25T12:28:21;98240.63;;;19.11;100.00
33280;BME280;20403;43.114;12.434;2023-04-25T12:30:56;98242.63;;;18.78;100.00
33280;BME280;20403;43.114;12.434;2023-04-25T12:33:23;98243.84;;;18.44;100.00
33280;BME280;20403;43.114;12.434;2023-04-25T12:35:48;98235.50;;;18.37;100.00
33280;BME280;20403;43.114;12.434;2023-04-25T12:38:26;98231.78;;;18.65;100.00
33280;BME280;20403;43.114;12.434;2023-04-25T12:40:53;98231.28;;;19.36;100.00
33280;BME280;20403;43.114;12.434;2023-04-25T12:43:18;98221.41;;;19.42;100.00
33280;BME280;20403;43.114;12.434;2023-04-25T12:45:46;98228.56;;;19.95;100.00
33280;BME280;20403;43.114;12.434;2023-04-25T12:48:12;98211.28;;;20.38;100.00